Time;durP1;ratioP1;P1;durP2;ratioP2;P2;SDS_P1;SDS_P2;PMS_P1;PMS_P2;Temp;Humidity;BMP_temperature;BMP_pressure;BME280_temperature;BME280_humidity;BME280_pressure;Samples;Min_cycle;Max_cycle;Signal;HPM_P1;HPM_P2
2022/03/13 00:01:18;;;;;;;552.79;500.25;;;;;;;;;;;;;-55
2022/03/13 00:04:16;;;;;;;551.73;499.34;;;;;;;;;;;;;-54
2022/03/13 00:07:25;;;;;;;549.83;497.51;;;;;;;;;;;;;-54
2022/03/13 00:10:17;;;;;;;549.57;497.34;;;;;;;;;;;;;-55
2022/03/13 00:13:20;;;;;;;549.28;496.92;;;;;;;;;;;;;-55
2022/03/13 00:16:17;;;;;;;547.81;495.51;;;;;;;;;;;;;-55
2022/03/13 00:19:18;;;;;;;549.11;496.70;;;;;;;;;;;;;-54
2022/03/13 00:22:16;;;;;;;554.17;501.48;;;;;;;;;;;;;-54
2022/03/13 00:25:16;;;;;;;550.61;498.15;;;;;;;;;;;;;-54
2022/03/13 00:28:16;;;;;;;552.65;500.19;;;;;;;;;;;;;-54
2022/03/13 00:31:16;;;;;;;551.22;498.71;;;;;;;;;;;;;-55
2022/03/13 00:34:17;;;;;;;553.97;501.45;;;;;;;;;;;;;-53
2022/03/13 00:37:17;;;;;;;553.95;501.22;;;;;;;;;;;;;-54
2022/03/13 00:40:17;;;;;;;548.98;496.58;;;;;;;;;;;;;-54
2022/03/13 00:43:17;;;;;;;548.24;495.91;;;;;;;;;;;;;-54
2022/03/13 00:46:16;;;;;;;546.38;494.21;;;;;;;;;;;;;-52
2022/03/13 00:49:16;;;;;;;546.09;493.89;;;;;;;;;;;;;-55
2022/03/13 00:52:17;;;;;;;543.41;491.33;;;;;;;;;;;;;-53
2022/03/13 00:55:16;;;;;;;544.77;492.65;;;;;;;;;;;;;-53
2022/03/13 00:58:16;;;;;;;547.27;495.01;;;;;;;;;;;;;-54
2022/03/13 01:01:16;;;;;;;543.75;491.59;;;;;;;;;;;;;-52
2022/03/13 01:04:16;;;;;;;543.60;491.55;;;;;;;;;;;;;-53
2022/03/13 01:07:16;;;;;;;540.14;488.24;;;;;;;;;;;;;-54
2022/03/13 01:10:16;;;;;;;540.01;488.04;;;;;;;;;;;;;-53
2022/03/13 01:13:17;;;;;;;541.09;489.05;;;;;;;;;;;;;-54
2022/03/13 01:16:17;;;;;;;543.63;491.37;;;;;;;;;;;;;-54
2022/03/13 01:19:16;;;;;;;540.92;488.83;;;;;;;;;;;;;-54
2022/03/13 01:22:16;;;;;;;544.11;491.80;;;;;;;;;;;;;-53
2022/03/13 01:25:16;;;;;;;542.91;490.62;;;;;;;;;;;;;-54
2022/03/13 01:28:18;;;;;;;537.81;485.88;;;;;;;;;;;;;-54
2022/03/13 01:31:16;;;;;;;538.31;486.38;;;;;;;;;;;;;-54
2022/03/13 01:34:16;;;;;;;540.74;488.81;;;;;;;;;;;;;-54
2022/03/13 01:37:16;;;;;;;535.51;483.71;;;;;;;;;;;;;-53
2022/03/13 01:40:16;;;;;;;537.33;485.57;;;;;;;;;;;;;-54
2022/03/13 01:43:17;;;;;;;533.60;481.99;;;;;;;;;;;;;-54
2022/03/13 01:46:16;;;;;;;532.07;480.45;;;;;;;;;;;;;-54
2022/03/13 01:49:17;;;;;;;536.12;484.39;;;;;;;;;;;;;-55
2022/03/13 01:52:17;;;;;;;532.19;480.50;;;;;;;;;;;;;-54
2022/03/13 01:55:16;;;;;;;530.23;478.72;;;;;;;;;;;;;-54
2022/03/13 01:58:16;;;;;;;531.91;480.43;;;;;;;;;;;;;-54
2022/03/13 02:01:16;;;;;;;535.87;484.09;;;;;;;;;;;;;-52
2022/03/13 02:04:16;;;;;;;532.85;481.11;;;;;;;;;;;;;-52
2022/03/13 02:07:16;;;;;;;534.89;483.08;;;;;;;;;;;;;-51
2022/03/13 02:10:16;;;;;;;534.93;482.97;;;;;;;;;;;;;-53
2022/03/13 02:13:16;;;;;;;538.92;486.89;;;;;;;;;;;;;-54
2022/03/13 02:16:16;;;;;;;535.53;483.48;;;;;;;;;;;;;-54
2022/03/13 02:19:16;;;;;;;534.85;482.87;;;;;;;;;;;;;-53
2022/03/13 02:22:16;;;;;;;535.45;483.37;;;;;;;;;;;;;-54
2022/03/13 02:25:16;;;;;;;536.65;484.72;;;;;;;;;;;;;-55
2022/03/13 02:28:16;;;;;;;534.47;482.50;;;;;;;;;;;;;-55
2022/03/13 02:31:16;;;;;;;530.89;479.15;;;;;;;;;;;;;-55
2022/03/13 02:34:16;;;;;;;533.29;481.45;;;;;;;;;;;;;-53
2022/03/13 02:37:16;;;;;;;528.97;477.30;;;;;;;;;;;;;-54
2022/03/13 02:40:16;;;;;;;533.71;481.79;;;;;;;;;;;;;-54
2022/03/13 02:43:16;;;;;;;532.11;480.31;;;;;;;;;;;;;-53
2022/03/13 02:46:16;;;;;;;534.69;482.78;;;;;;;;;;;;;-54
2022/03/13 02:49:16;;;;;;;531.79;480.01;;;;;;;;;;;;;-53
2022/03/13 02:52:16;;;;;;;529.72;478.08;;;;;;;;;;;;;-54
2022/03/13 02:55:17;;;;;;;532.65;480.89;;;;;;;;;;;;;-55
2022/03/13 02:58:16;;;;;;;528.29;476.87;;;;;;;;;;;;;-54
2022/03/13 03:01:16;;;;;;;524.77;473.41;;;;;;;;;;;;;-54
2022/03/13 03:04:16;;;;;;;527.55;476.19;;;;;;;;;;;;;-55
2022/03/13 03:07:16;;;;;;;523.17;471.96;;;;;;;;;;;;;-54
2022/03/13 03:10:17;;;;;;;526.59;475.14;;;;;;;;;;;;;-54
2022/03/13 03:13:17;;;;;;;524.19;473.04;;;;;;;;;;;;;-55
2022/03/13 03:16:16;;;;;;;522.75;471.55;;;;;;;;;;;;;-54
2022/03/13 03:19:16;;;;;;;523.62;472.39;;;;;;;;;;;;;-54
2022/03/13 03:22:16;;;;;;;527.21;475.96;;;;;;;;;;;;;-55
2022/03/13 03:25:17;;;;;;;523.55;472.31;;;;;;;;;;;;;-55
2022/03/13 03:28:17;;;;;;;523.63;472.57;;;;;;;;;;;;;-55
2022/03/13 03:31:17;;;;;;;523.49;472.40;;;;;;;;;;;;;-55
2022/03/13 03:34:16;;;;;;;527.80;476.47;;;;;;;;;;;;;-54
2022/03/13 03:37:16;;;;;;;525.62;474.25;;;;;;;;;;;;;-52
2022/03/13 03:40:16;;;;;;;528.59;477.04;;;;;;;;;;;;;-52
2022/03/13 03:43:16;;;;;;;525.26;473.94;;;;;;;;;;;;;-55
2022/03/13 03:46:16;;;;;;;524.55;473.28;;;;;;;;;;;;;-55
2022/03/13 03:49:16;;;;;;;522.03;470.93;;;;;;;;;;;;;-55
2022/03/13 03:52:16;;;;;;;521.59;470.41;;;;;;;;;;;;;-54
2022/03/13 03:55:16;;;;;;;521.93;470.77;;;;;;;;;;;;;-52
2022/03/13 03:58:21;;;;;;;520.41;469.25;;;;;;;;;;;;;-52
2022/03/13 04:01:16;;;;;;;520.11;468.90;;;;;;;;;;;;;-55
2022/03/13 04:04:16;;;;;;;521.10;469.75;;;;;;;;;;;;;-56
2022/03/13 04:07:18;;;;;;;520.85;469.58;;;;;;;;;;;;;-55
2022/03/13 04:10:16;;;;;;;518.39;467.29;;;;;;;;;;;;;-56
2022/03/13 04:13:18;;;;;;;520.51;469.29;;;;;;;;;;;;;-55
2022/03/13 04:16:16;;;;;;;520.99;469.90;;;;;;;;;;;;;-53
2022/03/13 04:19:16;;;;;;;521.66;470.55;;;;;;;;;;;;;-52
2022/03/13 04:22:17;;;;;;;519.13;467.91;;;;;;;;;;;;;-55
2022/03/13 04:25:16;;;;;;;515.29;464.34;;;;;;;;;;;;;-55
2022/03/13 04:28:17;;;;;;;515.47;464.39;;;;;;;;;;;;;-54
2022/03/13 04:31:16;;;;;;;516.57;465.37;;;;;;;;;;;;;-54
2022/03/13 04:34:16;;;;;;;515.97;464.95;;;;;;;;;;;;;-54
2022/03/13 04:37:17;;;;;;;516.06;465.03;;;;;;;;;;;;;-54
2022/03/13 04:40:16;;;;;;;513.43;462.25;;;;;;;;;;;;;-55
2022/03/13 04:43:16;;;;;;;512.19;461.25;;;;;;;;;;;;;-55
2022/03/13 04:46:17;;;;;;;510.45;459.63;;;;;;;;;;;;;-55
2022/03/13 04:49:16;;;;;;;511.13;460.26;;;;;;;;;;;;;-54
2022/03/13 04:52:16;;;;;;;513.54;462.69;;;;;;;;;;;;;-54
2022/03/13 04:55:18;;;;;;;513.44;462.53;;;;;;;;;;;;;-54
2022/03/13 04:58:18;;;;;;;517.35;466.33;;;;;;;;;;;;;-56
2022/03/13 05:01:19;;;;;;;518.50;467.47;;;;;;;;;;;;;-55
2022/03/13 05:04:16;;;;;;;516.13;465.03;;;;;;;;;;;;;-54
2022/03/13 05:07:17;;;;;;;516.01;465.04;;;;;;;;;;;;;-54
2022/03/13 05:10:18;;;;;;;517.33;466.30;;;;;;;;;;;;;-54
2022/03/13 05:13:16;;;;;;;514.49;463.52;;;;;;;;;;;;;-54
2022/03/13 05:16:16;;;;;;;516.89;465.83;;;;;;;;;;;;;-53
2022/03/13 05:19:16;;;;;;;517.53;466.47;;;;;;;;;;;;;-55
2022/03/13 05:22:16;;;;;;;515.74;464.67;;;;;;;;;;;;;-54
2022/03/13 05:25:17;;;;;;;515.32;464.29;;;;;;;;;;;;;-54
2022/03/13 05:28:16;;;;;;;517.07;465.97;;;;;;;;;;;;;-56
2022/03/13 05:31:16;;;;;;;511.13;460.29;;;;;;;;;;;;;-55
2022/03/13 05:34:16;;;;;;;512.12;461.30;;;;;;;;;;;;;-55
2022/03/13 05:37:16;;;;;;;515.58;464.58;;;;;;;;;;;;;-54
2022/03/13 05:40:18;;;;;;;512.68;461.77;;;;;;;;;;;;;-54
2022/03/13 05:43:18;;;;;;;511.50;460.63;;;;;;;;;;;;;-52
2022/03/13 05:46:16;;;;;;;513.23;462.29;;;;;;;;;;;;;-55
2022/03/13 05:49:16;;;;;;;514.45;463.57;;;;;;;;;;;;;-55
2022/03/13 05:52:16;;;;;;;513.09;462.19;;;;;;;;;;;;;-55
2022/03/13 05:55:17;;;;;;;512.87;461.86;;;;;;;;;;;;;-56
2022/03/13 05:58:17;;;;;;;514.43;463.53;;;;;;;;;;;;;-55
2022/03/13 06:01:16;;;;;;;514.03;463.18;;;;;;;;;;;;;-56
2022/03/13 06:04:16;;;;;;;509.17;458.39;;;;;;;;;;;;;-55
2022/03/13 06:07:16;;;;;;;517.77;466.63;;;;;;;;;;;;;-54
2022/03/13 06:10:16;;;;;;;512.87;461.94;;;;;;;;;;;;;-55
2022/03/13 06:13:16;;;;;;;509.95;459.14;;;;;;;;;;;;;-55
2022/03/13 06:16:16;;;;;;;512.98;462.20;;;;;;;;;;;;;-53
2022/03/13 06:19:16;;;;;;;513.65;462.81;;;;;;;;;;;;;-54
2022/03/13 06:22:17;;;;;;;512.22;461.41;;;;;;;;;;;;;-54
2022/03/13 06:25:16;;;;;;;516.93;465.99;;;;;;;;;;;;;-54
2022/03/13 06:28:16;;;;;;;513.72;462.81;;;;;;;;;;;;;-56
2022/03/13 06:31:16;;;;;;;513.03;462.25;;;;;;;;;;;;;-55
2022/03/13 06:34:16;;;;;;;512.95;462.19;;;;;;;;;;;;;-55
2022/03/13 06:37:16;;;;;;;515.31;464.41;;;;;;;;;;;;;-54
2022/03/13 06:40:17;;;;;;;516.67;465.74;;;;;;;;;;;;;-54
2022/03/13 06:43:16;;;;;;;513.98;463.10;;;;;;;;;;;;;-54
2022/03/13 06:46:16;;;;;;;514.93;464.03;;;;;;;;;;;;;-55
2022/03/13 06:49:16;;;;;;;513.37;462.59;;;;;;;;;;;;;-54
2022/03/13 06:52:16;;;;;;;510.12;459.45;;;;;;;;;;;;;-54
2022/03/13 06:55:17;;;;;;;514.79;464.03;;;;;;;;;;;;;-54
2022/03/13 06:58:16;;;;;;;510.93;460.15;;;;;;;;;;;;;-54
2022/03/13 07:01:16;;;;;;;504.26;453.78;;;;;;;;;;;;;-54
2022/03/13 07:04:16;;;;;;;507.51;456.99;;;;;;;;;;;;;-55
2022/03/13 07:07:16;;;;;;;509.49;458.88;;;;;;;;;;;;;-55
2022/03/13 07:10:16;;;;;;;508.55;457.86;;;;;;;;;;;;;-54
2022/03/13 07:13:18;;;;;;;508.06;457.41;;;;;;;;;;;;;-55
2022/03/13 07:16:16;;;;;;;513.15;462.32;;;;;;;;;;;;;-55
2022/03/13 07:19:16;;;;;;;509.67;459.10;;;;;;;;;;;;;-55
2022/03/13 07:22:16;;;;;;;507.79;457.15;;;;;;;;;;;;;-52
2022/03/13 07:25:16;;;;;;;508.30;457.66;;;;;;;;;;;;;-54
2022/03/13 07:28:16;;;;;;;508.99;458.35;;;;;;;;;;;;;-54
2022/03/13 07:31:16;;;;;;;503.68;453.24;;;;;;;;;;;;;-55
2022/03/13 07:34:16;;;;;;;507.69;457.07;;;;;;;;;;;;;-55
2022/03/13 07:37:16;;;;;;;507.30;456.69;;;;;;;;;;;;;-54
2022/03/13 07:40:16;;;;;;;509.32;458.59;;;;;;;;;;;;;-54
2022/03/13 07:43:17;;;;;;;509.29;458.59;;;;;;;;;;;;;-52
2022/03/13 07:46:16;;;;;;;508.99;458.43;;;;;;;;;;;;;-55
2022/03/13 07:49:16;;;;;;;506.22;455.71;;;;;;;;;;;;;-53
2022/03/13 07:52:16;;;;;;;508.29;457.70;;;;;;;;;;;;;-52
2022/03/13 07:55:16;;;;;;;507.91;457.39;;;;;;;;;;;;;-52
2022/03/13 07:58:17;;;;;;;504.13;453.71;;;;;;;;;;;;;-52
2022/03/13 08:01:16;;;;;;;507.45;456.94;;;;;;;;;;;;;-55
2022/03/13 08:04:16;;;;;;;505.14;454.64;;;;;;;;;;;;;-52
2022/03/13 08:07:16;;;;;;;506.63;456.05;;;;;;;;;;;;;-53
2022/03/13 08:10:20;;;;;;;503.22;452.77;;;;;;;;;;;;;-53
2022/03/13 08:13:16;;;;;;;506.31;455.75;;;;;;;;;;;;;-56
2022/03/13 08:16:17;;;;;;;506.34;455.79;;;;;;;;;;;;;-54
2022/03/13 08:19:16;;;;;;;502.29;451.94;;;;;;;;;;;;;-54
2022/03/13 08:22:17;;;;;;;499.17;449.01;;;;;;;;;;;;;-54
2022/03/13 08:25:19;;;;;;;504.27;453.72;;;;;;;;;;;;;-54
2022/03/13 08:28:16;;;;;;;505.33;454.85;;;;;;;;;;;;;-54
2022/03/13 08:31:17;;;;;;;501.59;451.24;;;;;;;;;;;;;-54
2022/03/13 08:34:16;;;;;;;502.87;452.50;;;;;;;;;;;;;-54
2022/03/13 08:37:16;;;;;;;504.79;454.27;;;;;;;;;;;;;-54
2022/03/13 08:40:16;;;;;;;509.01;458.36;;;;;;;;;;;;;-54
2022/03/13 08:43:16;;;;;;;506.07;455.45;;;;;;;;;;;;;-56
2022/03/13 08:46:17;;;;;;;504.63;454.14;;;;;;;;;;;;;-54
2022/03/13 08:49:16;;;;;;;503.85;453.34;;;;;;;;;;;;;-55
2022/03/13 08:52:16;;;;;;;503.14;452.67;;;;;;;;;;;;;-54
2022/03/13 08:55:18;;;;;;;507.87;457.28;;;;;;;;;;;;;-54
2022/03/13 08:58:16;;;;;;;504.87;454.46;;;;;;;;;;;;;-54
2022/03/13 09:01:17;;;;;;;501.75;451.47;;;;;;;;;;;;;-54
2022/03/13 09:04:16;;;;;;;506.89;456.41;;;;;;;;;;;;;-55
2022/03/13 09:07:16;;;;;;;504.67;454.25;;;;;;;;;;;;;-54
2022/03/13 09:10:16;;;;;;;504.42;453.95;;;;;;;;;;;;;-54
2022/03/13 09:13:16;;;;;;;505.93;455.35;;;;;;;;;;;;;-54
2022/03/13 09:16:16;;;;;;;503.22;452.82;;;;;;;;;;;;;-54
2022/03/13 09:19:16;;;;;;;507.55;456.89;;;;;;;;;;;;;-54
2022/03/13 09:22:18;;;;;;;501.50;451.21;;;;;;;;;;;;;-55
2022/03/13 09:25:18;;;;;;;504.49;453.93;;;;;;;;;;;;;-55
2022/03/13 09:28:16;;;;;;;506.33;455.73;;;;;;;;;;;;;-55
2022/03/13 09:31:16;;;;;;;505.54;455.08;;;;;;;;;;;;;-56
2022/03/13 09:34:36;;;;;;;505.23;454.72;;;;;;;;;;;;;-51
2022/03/13 09:37:16;;;;;;;507.31;456.69;;;;;;;;;;;;;-56
2022/03/13 09:40:17;;;;;;;509.11;458.45;;;;;;;;;;;;;-54
2022/03/13 09:43:19;;;;;;;512.83;462.11;;;;;;;;;;;;;-58
2022/03/13 09:46:17;;;;;;;514.65;463.74;;;;;;;;;;;;;-60
2022/03/13 09:49:17;;;;;;;516.27;465.32;;;;;;;;;;;;;-59
2022/03/13 09:52:16;;;;;;;518.85;467.93;;;;;;;;;;;;;-61
2022/03/13 09:55:16;;;;;;;518.84;467.79;;;;;;;;;;;;;-64
2022/03/13 09:58:16;;;;;;;521.28;470.14;;;;;;;;;;;;;-62
2022/03/13 10:01:16;;;;;;;524.99;473.83;;;;;;;;;;;;;-63
2022/03/13 10:04:16;;;;;;;530.95;479.60;;;;;;;;;;;;;-57
2022/03/13 10:07:16;;;;;;;535.45;483.95;;;;;;;;;;;;;-55
2022/03/13 10:10:16;;;;;;;535.95;484.43;;;;;;;;;;;;;-57
2022/03/13 10:13:16;;;;;;;541.91;489.95;;;;;;;;;;;;;-56
2022/03/13 10:16:19;;;;;;;544.51;492.70;;;;;;;;;;;;;-54
2022/03/13 10:19:17;;;;;;;545.47;493.47;;;;;;;;;;;;;-60
2022/03/13 10:22:16;;;;;;;547.93;495.89;;;;;;;;;;;;;-62
2022/03/13 10:25:17;;;;;;;551.32;499.19;;;;;;;;;;;;;-52
2022/03/13 10:28:16;;;;;;;555.53;503.30;;;;;;;;;;;;;-59
2022/03/13 10:31:17;;;;;;;556.90;504.58;;;;;;;;;;;;;-58
2022/03/13 10:34:16;;;;;;;558.29;505.85;;;;;;;;;;;;;-59
2022/03/13 10:37:16;;;;;;;562.65;510.13;;;;;;;;;;;;;-56
2022/03/13 10:40:16;;;;;;;561.71;509.11;;;;;;;;;;;;;-56
2022/03/13 10:43:19;;;;;;;563.88;511.33;;;;;;;;;;;;;-60
2022/03/13 10:46:17;;;;;;;564.90;512.29;;;;;;;;;;;;;-61
2022/03/13 10:49:16;;;;;;;563.37;510.44;;;;;;;;;;;;;-60
2022/03/13 10:52:16;;;;;;;560.69;507.70;;;;;;;;;;;;;-55
2022/03/13 10:55:16;;;;;;;558.55;505.91;;;;;;;;;;;;;-58
2022/03/13 10:58:17;;;;;;;559.17;506.69;;;;;;;;;;;;;-51
2022/03/13 11:01:16;;;;;;;560.79;508.09;;;;;;;;;;;;;-63
2022/03/13 11:04:17;;;;;;;567.20;514.33;;;;;;;;;;;;;-51
2022/03/13 11:07:16;;;;;;;568.16;515.23;;;;;;;;;;;;;-51
2022/03/13 11:10:16;;;;;;;564.79;512.00;;;;;;;;;;;;;-54
2022/03/13 11:13:19;;;;;;;567.46;514.39;;;;;;;;;;;;;-58
2022/03/13 11:16:20;;;;;;;568.54;515.25;;;;;;;;;;;;;-56
2022/03/13 11:19:16;;;;;;;572.05;518.89;;;;;;;;;;;;;-54
2022/03/13 11:22:20;;;;;;;575.11;521.74;;;;;;;;;;;;;-58
2022/03/13 11:25:16;;;;;;;572.87;519.04;;;;;;;;;;;;;-58
2022/03/13 11:28:16;;;;;;;577.18;523.53;;;;;;;;;;;;;-50
2022/03/13 11:31:16;;;;;;;580.27;526.52;;;;;;;;;;;;;-49
2022/03/13 11:34:16;;;;;;;577.85;524.38;;;;;;;;;;;;;-49
2022/03/13 11:37:16;;;;;;;572.15;518.91;;;;;;;;;;;;;-52
2022/03/13 11:40:16;;;;;;;572.99;519.97;;;;;;;;;;;;;-52
2022/03/13 11:43:16;;;;;;;565.92;512.98;;;;;;;;;;;;;-56
2022/03/13 11:46:16;;;;;;;571.82;518.63;;;;;;;;;;;;;-52
2022/03/13 11:49:37;;;;;;;566.77;513.63;;;;;;;;;;;;;-49
2022/03/13 11:52:16;;;;;;;565.77;512.93;;;;;;;;;;;;;-50
2022/03/13 11:59:18;;;;;;;564.61;511.47;;;;;;;;;;;;;-53
2022/03/13 12:02:16;;;;;;;574.36;520.89;;;;;;;;;;;;;-61
2022/03/13 12:05:16;;;;;;;571.17;518.05;;;;;;;;;;;;;-61
2022/03/13 12:08:21;;;;;;;573.01;519.76;;;;;;;;;;;;;-61
2022/03/13 12:11:16;;;;;;;577.18;523.78;;;;;;;;;;;;;-58
2022/03/13 12:14:16;;;;;;;578.35;525.17;;;;;;;;;;;;;-58
2022/03/13 12:17:16;;;;;;;577.06;524.02;;;;;;;;;;;;;-52
2022/03/13 12:20:16;;;;;;;579.36;526.09;;;;;;;;;;;;;-51
2022/03/13 12:23:16;;;;;;;579.60;526.39;;;;;;;;;;;;;-51
2022/03/13 12:26:16;;;;;;;583.13;529.84;;;;;;;;;;;;;-52
2022/03/13 12:29:17;;;;;;;581.99;528.65;;;;;;;;;;;;;-54
2022/03/13 12:32:16;;;;;;;580.99;527.59;;;;;;;;;;;;;-58
2022/03/13 12:35:16;;;;;;;580.33;527.20;;;;;;;;;;;;;-54
2022/03/13 12:38:17;;;;;;;581.50;527.94;;;;;;;;;;;;;-58
2022/03/13 12:41:16;;;;;;;580.87;527.71;;;;;;;;;;;;;-57
2022/03/13 12:44:17;;;;;;;576.06;523.01;;;;;;;;;;;;;-53
2022/03/13 12:47:16;;;;;;;581.99;528.70;;;;;;;;;;;;;-53
2022/03/13 12:50:16;;;;;;;584.69;531.35;;;;;;;;;;;;;-53
2022/03/13 12:53:16;;;;;;;581.25;528.03;;;;;;;;;;;;;-54
2022/03/13 12:56:17;;;;;;;584.57;531.17;;;;;;;;;;;;;-58
2022/03/13 12:59:16;;;;;;;583.92;530.54;;;;;;;;;;;;;-55
2022/03/13 13:02:18;;;;;;;583.75;530.26;;;;;;;;;;;;;-57
2022/03/13 13:05:16;;;;;;;588.48;534.94;;;;;;;;;;;;;-58
2022/03/13 13:08:16;;;;;;;582.90;529.51;;;;;;;;;;;;;-57
2022/03/13 13:11:16;;;;;;;580.61;527.39;;;;;;;;;;;;;-57
2022/03/13 13:14:16;;;;;;;579.30;526.02;;;;;;;;;;;;;-57
2022/03/13 13:17:17;;;;;;;577.61;524.50;;;;;;;;;;;;;-55
2022/03/13 13:20:16;;;;;;;581.35;527.81;;;;;;;;;;;;;-57
2022/03/13 13:23:18;;;;;;;586.11;532.69;;;;;;;;;;;;;-55
2022/03/13 13:26:16;;;;;;;591.73;537.61;;;;;;;;;;;;;-58
2022/03/13 13:29:17;;;;;;;594.53;540.24;;;;;;;;;;;;;-58
2022/03/13 13:32:16;;;;;;;586.84;533.11;;;;;;;;;;;;;-60
2022/03/13 13:35:16;;;;;;;593.64;539.44;;;;;;;;;;;;;-59
2022/03/13 13:38:17;;;;;;;607.22;552.51;;;;;;;;;;;;;-58
2022/03/13 13:41:16;;;;;;;600.34;546.07;;;;;;;;;;;;;-59
2022/03/13 13:44:16;;;;;;;606.17;551.51;;;;;;;;;;;;;-60
2022/03/13 13:47:16;;;;;;;607.94;553.27;;;;;;;;;;;;;-58
2022/03/13 13:50:16;;;;;;;602.47;548.03;;;;;;;;;;;;;-54
2022/03/13 13:53:16;;;;;;;607.25;552.71;;;;;;;;;;;;;-53
2022/03/13 13:56:16;;;;;;;602.61;548.25;;;;;;;;;;;;;-55
2022/03/13 13:59:16;;;;;;;604.54;549.97;;;;;;;;;;;;;-56
2022/03/13 14:02:18;;;;;;;601.09;546.83;;;;;;;;;;;;;-56
2022/03/13 14:05:16;;;;;;;603.10;548.67;;;;;;;;;;;;;-54
2022/03/13 14:08:16;;;;;;;600.88;546.57;;;;;;;;;;;;;-54
2022/03/13 14:11:17;;;;;;;604.03;549.67;;;;;;;;;;;;;-53
2022/03/13 14:14:16;;;;;;;606.64;552.14;;;;;;;;;;;;;-58
2022/03/13 14:17:16;;;;;;;605.35;550.84;;;;;;;;;;;;;-55
2022/03/13 14:20:16;;;;;;;609.43;554.83;;;;;;;;;;;;;-59
2022/03/13 14:23:16;;;;;;;604.01;549.61;;;;;;;;;;;;;-56
2022/03/13 14:26:16;;;;;;;606.35;551.94;;;;;;;;;;;;;-56
2022/03/13 14:29:16;;;;;;;606.83;552.31;;;;;;;;;;;;;-59
2022/03/13 14:32:16;;;;;;;606.59;552.02;;;;;;;;;;;;;-56
2022/03/13 14:35:18;;;;;;;608.57;553.92;;;;;;;;;;;;;-51
2022/03/13 14:38:16;;;;;;;601.63;547.35;;;;;;;;;;;;;-53
2022/03/13 14:41:16;;;;;;;604.13;549.71;;;;;;;;;;;;;-51
2022/03/13 14:44:18;;;;;;;597.33;543.19;;;;;;;;;;;;;-55
2022/03/13 14:47:16;;;;;;;603.92;549.35;;;;;;;;;;;;;-54
2022/03/13 14:50:16;;;;;;;602.25;547.95;;;;;;;;;;;;;-53
2022/03/13 14:53:17;;;;;;;599.70;545.53;;;;;;;;;;;;;-53
2022/03/13 14:56:16;;;;;;;599.45;545.13;;;;;;;;;;;;;-53
2022/03/13 14:59:16;;;;;;;604.41;550.04;;;;;;;;;;;;;-53
2022/03/13 15:02:16;;;;;;;603.16;548.89;;;;;;;;;;;;;-54
2022/03/13 15:05:16;;;;;;;604.78;550.41;;;;;;;;;;;;;-54
2022/03/13 15:08:17;;;;;;;608.19;553.75;;;;;;;;;;;;;-57
2022/03/13 15:11:16;;;;;;;610.54;555.98;;;;;;;;;;;;;-57
2022/03/13 15:14:16;;;;;;;609.43;554.92;;;;;;;;;;;;;-56
2022/03/13 15:17:17;;;;;;;610.00;555.49;;;;;;;;;;;;;-64
2022/03/13 15:20:16;;;;;;;611.24;556.55;;;;;;;;;;;;;-54
2022/03/13 15:23:16;;;;;;;609.17;554.63;;;;;;;;;;;;;-52
2022/03/13 15:26:16;;;;;;;613.69;558.97;;;;;;;;;;;;;-56
2022/03/13 15:29:17;;;;;;;610.85;556.17;;;;;;;;;;;;;-54
2022/03/13 15:32:16;;;;;;;608.63;554.21;;;;;;;;;;;;;-55
2022/03/13 15:35:16;;;;;;;613.72;559.01;;;;;;;;;;;;;-53
2022/03/13 15:38:16;;;;;;;622.19;567.01;;;;;;;;;;;;;-53
2022/03/13 15:41:16;;;;;;;619.07;564.04;;;;;;;;;;;;;-54
2022/03/13 15:44:17;;;;;;;616.29;561.39;;;;;;;;;;;;;-56
2022/03/13 15:47:16;;;;;;;610.54;555.82;;;;;;;;;;;;;-56
2022/03/13 15:50:16;;;;;;;609.69;555.07;;;;;;;;;;;;;-59
2022/03/13 15:53:16;;;;;;;610.29;555.64;;;;;;;;;;;;;-59
2022/03/13 15:56:16;;;;;;;613.81;558.95;;;;;;;;;;;;;-54
2022/03/13 15:59:18;;;;;;;606.12;551.72;;;;;;;;;;;;;-53
2022/03/13 16:02:17;;;;;;;612.14;557.44;;;;;;;;;;;;;-59
2022/03/13 16:05:17;;;;;;;609.38;554.82;;;;;;;;;;;;;-59
2022/03/13 16:08:17;;;;;;;601.76;547.37;;;;;;;;;;;;;-53
2022/03/13 16:11:17;;;;;;;604.43;549.99;;;;;;;;;;;;;-52
2022/03/13 16:14:17;;;;;;;603.12;548.75;;;;;;;;;;;;;-59
2022/03/13 16:17:16;;;;;;;602.93;548.55;;;;;;;;;;;;;-56
2022/03/13 16:20:17;;;;;;;606.33;551.88;;;;;;;;;;;;;-53
2022/03/13 16:23:16;;;;;;;603.63;549.21;;;;;;;;;;;;;-58
2022/03/13 16:26:16;;;;;;;608.63;553.88;;;;;;;;;;;;;-58
2022/03/13 16:29:16;;;;;;;608.27;553.38;;;;;;;;;;;;;-59
2022/03/13 16:32:17;;;;;;;609.67;555.08;;;;;;;;;;;;;-61
2022/03/13 16:35:16;;;;;;;610.36;555.44;;;;;;;;;;;;;-54
2022/03/13 16:38:16;;;;;;;610.24;555.29;;;;;;;;;;;;;-59
2022/03/13 16:41:16;;;;;;;611.79;556.91;;;;;;;;;;;;;-56
2022/03/13 16:44:18;;;;;;;616.11;561.19;;;;;;;;;;;;;-56
2022/03/13 16:47:16;;;;;;;614.22;559.24;;;;;;;;;;;;;-57
2022/03/13 16:50:16;;;;;;;614.72;559.85;;;;;;;;;;;;;-55
2022/03/13 16:53:17;;;;;;;615.39;560.49;;;;;;;;;;;;;-55
2022/03/13 16:56:16;;;;;;;619.56;564.56;;;;;;;;;;;;;-56
2022/03/13 16:59:16;;;;;;;612.05;557.27;;;;;;;;;;;;;-53
2022/03/13 17:02:16;;;;;;;607.86;553.39;;;;;;;;;;;;;-54
2022/03/13 17:05:16;;;;;;;605.23;550.88;;;;;;;;;;;;;-54
2022/03/13 17:08:16;;;;;;;605.15;550.85;;;;;;;;;;;;;-64
2022/03/13 17:11:17;;;;;;;609.45;554.59;;;;;;;;;;;;;-52
2022/03/13 17:14:17;;;;;;;611.07;556.62;;;;;;;;;;;;;-64
2022/03/13 17:17:16;;;;;;;613.10;558.47;;;;;;;;;;;;;-50
2022/03/13 17:20:33;;;;;;;617.87;562.08;;;;;;;;;;;;;-50
2022/03/13 17:23:16;;;;;;;612.92;558.24;;;;;;;;;;;;;-53
2022/03/13 17:26:16;;;;;;;616.09;561.21;;;;;;;;;;;;;-55
2022/03/13 17:29:16;;;;;;;618.38;563.51;;;;;;;;;;;;;-56
2022/03/13 17:32:16;;;;;;;618.57;563.61;;;;;;;;;;;;;-65
2022/03/13 17:35:16;;;;;;;613.63;558.91;;;;;;;;;;;;;-52
2022/03/13 17:38:17;;;;;;;619.16;564.13;;;;;;;;;;;;;-60
2022/03/13 17:41:16;;;;;;;619.52;564.53;;;;;;;;;;;;;-53
2022/03/13 17:44:16;;;;;;;620.52;565.51;;;;;;;;;;;;;-54
2022/03/13 17:47:16;;;;;;;618.49;563.57;;;;;;;;;;;;;-56
2022/03/13 17:50:16;;;;;;;620.27;565.28;;;;;;;;;;;;;-58
2022/03/13 17:53:18;;;;;;;621.96;566.82;;;;;;;;;;;;;-59
2022/03/13 17:56:16;;;;;;;622.52;567.33;;;;;;;;;;;;;-55
2022/03/13 17:59:16;;;;;;;626.37;570.64;;;;;;;;;;;;;-57
2022/03/13 18:02:16;;;;;;;622.91;567.54;;;;;;;;;;;;;-48
2022/03/13 18:05:16;;;;;;;614.39;559.55;;;;;;;;;;;;;-54
2022/03/13 18:08:16;;;;;;;613.57;558.58;;;;;;;;;;;;;-57
2022/03/13 18:11:16;;;;;;;614.65;559.77;;;;;;;;;;;;;-58
2022/03/13 18:14:16;;;;;;;621.23;566.03;;;;;;;;;;;;;-56
2022/03/13 18:17:16;;;;;;;618.42;563.36;;;;;;;;;;;;;-59
2022/03/13 18:20:16;;;;;;;624.93;569.64;;;;;;;;;;;;;-59
2022/03/13 18:23:16;;;;;;;631.58;576.05;;;;;;;;;;;;;-59
2022/03/13 18:26:16;;;;;;;626.11;570.59;;;;;;;;;;;;;-57
2022/03/13 18:29:16;;;;;;;621.44;566.27;;;;;;;;;;;;;-57
2022/03/13 18:32:16;;;;;;;618.54;563.45;;;;;;;;;;;;;-58
2022/03/13 18:35:16;;;;;;;614.81;559.67;;;;;;;;;;;;;-62
2022/03/13 18:38:17;;;;;;;613.73;558.61;;;;;;;;;;;;;-51
2022/03/13 18:41:16;;;;;;;614.52;559.49;;;;;;;;;;;;;-59
2022/03/13 18:44:16;;;;;;;614.75;559.84;;;;;;;;;;;;;-65
2022/03/13 18:47:16;;;;;;;619.71;564.59;;;;;;;;;;;;;-56
2022/03/13 18:50:16;;;;;;;616.74;561.76;;;;;;;;;;;;;-64
2022/03/13 18:53:16;;;;;;;619.64;564.45;;;;;;;;;;;;;-64
2022/03/13 18:56:16;;;;;;;623.33;567.90;;;;;;;;;;;;;-62
2022/03/13 18:59:17;;;;;;;622.44;567.06;;;;;;;;;;;;;-59
2022/03/13 19:02:16;;;;;;;625.07;569.31;;;;;;;;;;;;;-61
2022/03/13 19:05:16;;;;;;;620.01;564.66;;;;;;;;;;;;;-54
2022/03/13 19:08:17;;;;;;;615.71;560.84;;;;;;;;;;;;;-57
2022/03/13 19:11:17;;;;;;;617.82;562.89;;;;;;;;;;;;;-53
2022/03/13 19:14:16;;;;;;;617.63;562.57;;;;;;;;;;;;;-59
2022/03/13 19:17:18;;;;;;;614.89;560.05;;;;;;;;;;;;;-52
2022/03/13 19:20:16;;;;;;;617.04;562.21;;;;;;;;;;;;;-51
2022/03/13 19:23:16;;;;;;;618.40;563.55;;;;;;;;;;;;;-56
2022/03/13 19:26:16;;;;;;;618.55;563.69;;;;;;;;;;;;;-51
2022/03/13 19:29:16;;;;;;;622.77;567.61;;;;;;;;;;;;;-51
2022/03/13 19:32:16;;;;;;;618.74;563.80;;;;;;;;;;;;;-53
2022/03/13 19:35:18;;;;;;;618.99;563.77;;;;;;;;;;;;;-59
2022/03/13 19:38:18;;;;;;;621.16;565.86;;;;;;;;;;;;;-56
2022/03/13 19:41:19;;;;;;;619.73;564.46;;;;;;;;;;;;;-55
2022/03/13 19:44:18;;;;;;;616.86;561.87;;;;;;;;;;;;;-51
2022/03/13 19:47:16;;;;;;;622.02;566.56;;;;;;;;;;;;;-57
2022/03/13 19:50:17;;;;;;;618.33;563.29;;;;;;;;;;;;;-57
2022/03/13 19:53:16;;;;;;;618.26;563.47;;;;;;;;;;;;;-57
2022/03/13 19:56:16;;;;;;;617.92;562.99;;;;;;;;;;;;;-57
2022/03/13 19:59:16;;;;;;;613.00;557.95;;;;;;;;;;;;;-57
2022/03/13 20:02:16;;;;;;;608.65;554.03;;;;;;;;;;;;;-57
2022/03/13 20:05:18;;;;;;;610.11;555.48;;;;;;;;;;;;;-57
2022/03/13 20:08:16;;;;;;;613.40;558.67;;;;;;;;;;;;;-57
2022/03/13 20:11:17;;;;;;;609.76;554.92;;;;;;;;;;;;;-58
2022/03/13 20:14:16;;;;;;;610.47;555.93;;;;;;;;;;;;;-57
2022/03/13 20:17:16;;;;;;;613.91;559.11;;;;;;;;;;;;;-58
2022/03/13 20:20:16;;;;;;;606.77;552.30;;;;;;;;;;;;;-58
2022/03/13 20:23:16;;;;;;;604.18;549.83;;;;;;;;;;;;;-58
2022/03/13 20:26:16;;;;;;;605.77;551.40;;;;;;;;;;;;;-58
2022/03/13 20:29:21;;;;;;;603.60;549.23;;;;;;;;;;;;;-57
2022/03/13 20:32:17;;;;;;;605.64;551.29;;;;;;;;;;;;;-55
2022/03/13 20:35:16;;;;;;;603.27;548.98;;;;;;;;;;;;;-55
2022/03/13 20:38:16;;;;;;;601.08;546.60;;;;;;;;;;;;;-56
2022/03/13 20:41:19;;;;;;;602.10;548.01;;;;;;;;;;;;;-55
2022/03/13 20:44:16;;;;;;;605.71;551.30;;;;;;;;;;;;;-54
2022/03/13 20:47:16;;;;;;;606.51;551.99;;;;;;;;;;;;;-58
2022/03/13 20:50:16;;;;;;;605.12;550.81;;;;;;;;;;;;;-58
2022/03/13 20:53:16;;;;;;;602.31;548.11;;;;;;;;;;;;;-58
2022/03/13 20:56:17;;;;;;;601.70;547.51;;;;;;;;;;;;;-57
2022/03/13 20:59:16;;;;;;;598.47;544.43;;;;;;;;;;;;;-57
2022/03/13 21:02:16;;;;;;;596.38;542.49;;;;;;;;;;;;;-57
2022/03/13 21:05:16;;;;;;;593.47;539.42;;;;;;;;;;;;;-58
2022/03/13 21:08:16;;;;;;;598.67;544.51;;;;;;;;;;;;;-52
2022/03/13 21:11:20;;;;;;;599.77;545.65;;;;;;;;;;;;;-54
2022/03/13 21:14:19;;;;;;;597.28;543.07;;;;;;;;;;;;;-54